Sipu Muin — CHCGA — position and weather

sailwx.info

Track history (hours):
 
Tides and Currents Weather Stations Pressure Air Temp Water Temp Dewpoint Dewpoint Depression Visibility Wind Speed Wind Dir Waves Ship Positions

Sipu Muin

Last reported at 2018-May-23 20:24 UTC. Time now 2018-May-24 06:26 UTC.
Position N 45°19' W 073°55'.

Length 37 m.

Type: SAR. MMSI: 316001988.

Date/timePositionNaut miles runAvg speedWind from/ knotsBaromVisibWave heightAir tempDewpointWater temp
2018-May-23 20:24N 45°19' W 073°55'717.7
2018-May-23 20:00N 45°25' W 073°50'1 1.8
2018-May-23 19:31N 45°25' W 073°49'1 2.5
2018-May-23 19:00N 45°26' W 073°47'0 0.7
2018-May-23 18:30N 45°26' W 073°46'1 2.2
2018-May-23 18:00N 45°25' W 073°45'510.5
2018-May-23 17:31N 45°22' W 073°51'4 8.1
2018-May-23 17:00N 45°19' W 073°55'0 0.0
2018-May-23 16:30N 45°19' W 073°55'0 0.0
2018-May-23 16:00N 45°19' W 073°55'0 0.0
2018-May-23 15:30N 45°19' W 073°55'0 0.0
2018-May-23 15:00N 45°19' W 073°55'0 0.0
2018-May-23 14:30N 45°19' W 073°55'0 0.0
2018-May-23 14:00N 45°19' W 073°55'0 0.0
2018-May-23 13:30N 45°19' W 073°55'0 0.0
2018-May-23 13:00N 45°19' W 073°55'0 0.0
2018-May-23 12:30N 45°19' W 073°55'0 0.0
2018-May-23 03:43N 45°19' W 073°55'0 0.0
2018-May-23 03:28N 45°19' W 073°55'0 0.0
2018-May-23 03:00N 45°19' W 073°55'0 0.0
2018-May-23 01:47N 45°19' W 073°55'0 0.0
2018-May-23 01:30N 45°19' W 073°55'0 0.0
2018-May-23 01:00N 45°19' W 073°55'0 0.0
2018-May-23 00:30N 45°19' W 073°55'0 0.0
2018-May-23 00:00N 45°19' W 073°55'0 0.0
2018-May-22 21:16N 45°19' W 073°55'2 7.4
2018-May-22 21:00N 45°21' W 073°54'713.2
2018-May-22 20:31N 45°25' W 073°46'1 1.0
2018-May-22 20:00N 45°25' W 073°45'0 0.5
2018-May-22 19:30N 45°25' W 073°45'0 0.9
2018-May-22 19:00N 45°25' W 073°46'917.3
2018-May-22 18:30N 45°19' W 073°55'0 0.0
2018-May-22 18:00N 45°19' W 073°55'0 0.0
2018-May-22 17:30N 45°19' W 073°55'917.5
2018-May-22 17:01N 45°25' W 073°46'1 2.9
2018-May-22 16:30N 45°25' W 073°44'1 1.1
2018-May-22 16:00N 45°26' W 073°43'0 1.0
2018-May-22 15:30N 45°26' W 073°42'0 0.8
2018-May-22 15:00N 45°26' W 073°42'1 1.1
2018-May-22 14:30N 45°25' W 073°42'1121.9
2018-May-22 14:00N 45°19' W 073°55'0 0.1
2018-May-22 13:30N 45°19' W 073°55'0 0.0
2018-May-22 13:00N 45°19' W 073°55'0 0.0
2018-May-21 18:54N 45°19' W 073°55'922.9
2018-May-21 18:30N 45°25' W 073°45'1019.8
2018-May-21 18:00N 45°29' W 073°31'1926.0
2018-May-21 17:17N 45°46' W 073°23'726.6
2018-May-21 17:00N 45°52' W 073°16'1326.6
2018-May-21 16:30N 46°03' W 073°07'  
2018-May-18 15:29N 46°47' W 071°13'3 6.1
2018-May-18 15:00N 46°50' W 071°12'3 1.1
2018-May-18 12:20N 46°52' W 071°09'3 9.2
2018-May-18 12:00N 46°50' W 071°12'0 0.0
2018-May-18 11:30N 46°50' W 071°12'0 0.0
2018-May-18 02:00N 46°50' W 071°12'0 0.0
2018-May-18 01:29N 46°50' W 071°12'0 0.0
2018-May-18 01:00N 46°50' W 071°12'0 0.0
2018-May-18 00:30N 46°50' W 071°12'0 0.0
2018-May-17 20:27N 46°50' W 071°12'0 0.7
2018-May-17 20:00N 46°50' W 071°11'1 2.3
2018-May-17 19:30N 46°50' W 071°12'1 1.1
2018-May-17 18:52N 46°49' W 071°12'2 0.4
2018-May-17 14:32N 46°50' W 071°10'123.6
2018-May-17 14:30N 46°50' W 071°11'2 3.1
2018-May-17 13:58N 46°48' W 071°12'2 3.2
2018-May-17 13:25N 46°50' W 071°12'0 0.0
2018-May-17 13:00N 46°50' W 071°12'0 0.0
2018-May-17 12:30N 46°50' W 071°12'0 0.0
2018-May-17 12:00N 46°50' W 071°12'0 0.0
2018-May-16 21:03N 46°50' W 071°12'0 0.0
2018-May-16 21:00N 46°50' W 071°12'2 0.4
2018-May-16 16:53N 46°51' W 071°10'2 3.5
2018-May-16 16:27N 46°50' W 071°12'2 1.0
2018-May-16 14:47N 46°51' W 071°10'3 4.2
2018-May-16 14:08N 46°49' W 071°12'5 3.8
2018-May-16 12:49N 46°53' W 071°08'514.9
2018-May-16 12:29N 46°49' W 071°12'1 1.8
2018-May-16 12:00N 46°48' W 071°12'2 3.2
2018-May-16 11:27N 46°50' W 071°12'0 0.0
2018-May-15 20:31N 46°50' W 071°12'0 0.0
2018-May-15 20:26N 46°50' W 071°12'3 4.2
2018-May-15 19:46N 46°52' W 071°09'310.4
2018-May-15 19:30N 46°50' W 071°11'2 2.3
2018-May-15 18:45N 46°49' W 071°12'  
Track history (hours):
 
Tides and Currents Weather Stations Pressure Air Temp Water Temp Dewpoint Dewpoint Depression Visibility Wind Speed Wind Dir Waves Ship Positions

Sipu Muin

Last reported at 2018-May-23 20:24 UTC. Time now 2018-May-24 06:26 UTC.
Position N 45°19' W 073°55'.

Length 37 m.

Type: SAR. MMSI: 316001988.

Date/timePositionNaut miles runAvg speedWind from/ knotsBaromVisibWave heightAir tempDewpointWater temp
2018-May-23 20:24N 45°19' W 073°55'717.7
2018-May-23 20:00N 45°25' W 073°50'1 1.8
2018-May-23 19:31N 45°25' W 073°49'1 2.5
2018-May-23 19:00N 45°26' W 073°47'0 0.7
2018-May-23 18:30N 45°26' W 073°46'1 2.2
2018-May-23 18:00N 45°25' W 073°45'510.5
2018-May-23 17:31N 45°22' W 073°51'4 8.1
2018-May-23 17:00N 45°19' W 073°55'0 0.0
2018-May-23 16:30N 45°19' W 073°55'0 0.0
2018-May-23 16:00N 45°19' W 073°55'0 0.0
2018-May-23 15:30N 45°19' W 073°55'0 0.0
2018-May-23 15:00N 45°19' W 073°55'0 0.0
2018-May-23 14:30N 45°19' W 073°55'0 0.0
2018-May-23 14:00N 45°19' W 073°55'0 0.0
2018-May-23 13:30N 45°19' W 073°55'0 0.0
2018-May-23 13:00N 45°19' W 073°55'0 0.0
2018-May-23 12:30N 45°19' W 073°55'0 0.0
2018-May-23 03:43N 45°19' W 073°55'0 0.0
2018-May-23 03:28N 45°19' W 073°55'0 0.0
2018-May-23 03:00N 45°19' W 073°55'0 0.0
2018-May-23 01:47N 45°19' W 073°55'0 0.0
2018-May-23 01:30N 45°19' W 073°55'0 0.0
2018-May-23 01:00N 45°19' W 073°55'0 0.0
2018-May-23 00:30N 45°19' W 073°55'0 0.0
2018-May-23 00:00N 45°19' W 073°55'0 0.0
2018-May-22 21:16N 45°19' W 073°55'2 7.4
2018-May-22 21:00N 45°21' W 073°54'713.2
2018-May-22 20:31N 45°25' W 073°46'1 1.0
2018-May-22 20:00N 45°25' W 073°45'0 0.5
2018-May-22 19:30N 45°25' W 073°45'0 0.9
2018-May-22 19:00N 45°25' W 073°46'917.3
2018-May-22 18:30N 45°19' W 073°55'0 0.0
2018-May-22 18:00N 45°19' W 073°55'0 0.0
2018-May-22 17:30N 45°19' W 073°55'917.5
2018-May-22 17:01N 45°25' W 073°46'1 2.9
2018-May-22 16:30N 45°25' W 073°44'1 1.1
2018-May-22 16:00N 45°26' W 073°43'0 1.0
2018-May-22 15:30N 45°26' W 073°42'0 0.8
2018-May-22 15:00N 45°26' W 073°42'1 1.1
2018-May-22 14:30N 45°25' W 073°42'1121.9
2018-May-22 14:00N 45°19' W 073°55'0 0.1
2018-May-22 13:30N 45°19' W 073°55'0 0.0
2018-May-22 13:00N 45°19' W 073°55'0 0.0
2018-May-21 18:54N 45°19' W 073°55'922.9
2018-May-21 18:30N 45°25' W 073°45'1019.8
2018-May-21 18:00N 45°29' W 073°31'1926.0
2018-May-21 17:17N 45°46' W 073°23'726.6
2018-May-21 17:00N 45°52' W 073°16'1326.6
2018-May-21 16:30N 46°03' W 073°07'  
2018-May-18 15:29N 46°47' W 071°13'3 6.1
2018-May-18 15:00N 46°50' W 071°12'3 1.1
2018-May-18 12:20N 46°52' W 071°09'3 9.2
2018-May-18 12:00N 46°50' W 071°12'0 0.0
2018-May-18 11:30N 46°50' W 071°12'0 0.0
2018-May-18 02:00N 46°50' W 071°12'0 0.0
2018-May-18 01:29N 46°50' W 071°12'0 0.0
2018-May-18 01:00N 46°50' W 071°12'0 0.0
2018-May-18 00:30N 46°50' W 071°12'0 0.0
2018-May-17 20:27N 46°50' W 071°12'0 0.7
2018-May-17 20:00N 46°50' W 071°11'1 2.3
2018-May-17 19:30N 46°50' W 071°12'1 1.1
2018-May-17 18:52N 46°49' W 071°12'2 0.4
2018-May-17 14:32N 46°50' W 071°10'123.6
2018-May-17 14:30N 46°50' W 071°11'2 3.1
2018-May-17 13:58N 46°48' W 071°12'2 3.2
2018-May-17 13:25N 46°50' W 071°12'0 0.0
2018-May-17 13:00N 46°50' W 071°12'0 0.0
2018-May-17 12:30N 46°50' W 071°12'0 0.0
2018-May-17 12:00N 46°50' W 071°12'0 0.0
2018-May-16 21:03N 46°50' W 071°12'0 0.0
2018-May-16 21:00N 46°50' W 071°12'2 0.4
2018-May-16 16:53N 46°51' W 071°10'2 3.5
2018-May-16 16:27N 46°50' W 071°12'2 1.0
2018-May-16 14:47N 46°51' W 071°10'3 4.2
2018-May-16 14:08N 46°49' W 071°12'5 3.8
2018-May-16 12:49N 46°53' W 071°08'514.9
2018-May-16 12:29N 46°49' W 071°12'1 1.8
2018-May-16 12:00N 46°48' W 071°12'2 3.2
2018-May-16 11:27N 46°50' W 071°12'0 0.0
2018-May-15 20:31N 46°50' W 071°12'0 0.0
2018-May-15 20:26N 46°50' W 071°12'3 4.2
2018-May-15 19:46N 46°52' W 071°09'310.4
2018-May-15 19:30N 46°50' W 071°11'2 2.3
2018-May-15 18:45N 46°49' W 071°12'  

Dump ship's entire track history